createdAt,value
2022-12-18T00:00:49.741Z,99249.69
2022-12-18T00:03:21.165Z,99222.53
2022-12-18T00:05:56.119Z,99214.06
2022-12-18T00:08:25.525Z,99198.50
2022-12-18T00:11:07.220Z,99230.38
2022-12-18T00:13:37.313Z,99190.44
2022-12-18T00:16:14.311Z,99202.44
2022-12-18T00:21:27.018Z,99209.81
2022-12-18T00:23:57.601Z,99201.28
2022-12-18T00:26:28.698Z,99202.38
2022-12-18T00:29:03.069Z,99234.06
2022-12-18T00:31:40.870Z,99187.81
2022-12-18T00:34:13.312Z,99160.97
2022-12-18T00:36:44.052Z,99133.06
2022-12-18T00:39:14.898Z,99129.94
2022-12-18T00:42:00.186Z,99212.88
2022-12-18T00:44:29.504Z,99191.13
2022-12-18T00:46:58.836Z,99169.94
2022-12-18T00:49:30.134Z,99179.66
2022-12-18T00:51:59.468Z,99165.66
2022-12-18T00:54:28.804Z,99170.41
2022-12-18T00:57:03.283Z,99152.50
2022-12-18T00:59:32.754Z,99135.63
2022-12-18T01:02:02.031Z,99125.53
2022-12-18T01:04:34.128Z,99106.03
2022-12-18T01:07:03.248Z,99147.84
2022-12-18T01:09:32.351Z,99134.22
2022-12-18T01:12:09.733Z,99115.88
2022-12-18T01:14:39.272Z,99108.88
2022-12-18T01:17:08.663Z,99113.75
2022-12-18T01:19:44.847Z,99081.88
2022-12-18T01:22:14.073Z,99135.13
2022-12-18T01:24:43.209Z,99112.63
2022-12-18T01:27:12.597Z,99129.94
2022-12-18T01:29:43.032Z,99107.50
2022-12-18T01:35:01.208Z,99070.94
2022-12-18T01:37:35.480Z,99104.28
2022-12-18T01:40:04.530Z,99011.81
2022-12-18T01:42:33.700Z,99114.50
2022-12-18T01:45:26.959Z,99045.44
2022-12-18T01:47:58.244Z,99112.75
2022-12-18T01:50:39.573Z,99021.66
2022-12-18T01:55:51.808Z,99078.56
2022-12-18T01:58:24.596Z,99073.25
2022-12-18T02:00:53.892Z,99062.47
2022-12-18T02:03:23.058Z,99067.75
2022-12-18T02:06:05.601Z,99055.81
2022-12-18T02:08:40.531Z,99038.88
2022-12-18T02:11:15.086Z,99108.59
2022-12-18T02:14:01.465Z,99005.03
2022-12-18T02:16:41.958Z,99051.91
2022-12-18T02:19:31.602Z,99091.00
2022-12-18T02:22:21.191Z,99105.34
2022-12-18T02:25:02.676Z,99078.84
2022-12-18T02:27:36.961Z,99023.22
2022-12-18T02:30:10.074Z,99070.84
2022-12-18T02:32:45.170Z,99046.44
2022-12-18T02:35:22.265Z,99017.84
2022-12-18T02:38:06.393Z,99069.41
2022-12-18T02:40:40.619Z,99042.19
2022-12-18T02:43:15.902Z,99021.84
2022-12-18T02:45:57.832Z,99088.50
2022-12-18T02:48:32.977Z,99104.63
2022-12-18T02:51:11.112Z,99111.16
2022-12-18T02:53:46.911Z,99064.28
2022-12-18T02:56:27.171Z,99093.81
2022-12-18T02:59:03.078Z,99087.22
2022-12-18T03:01:46.294Z,99034.03
2022-12-18T03:04:19.504Z,99040.22
2022-12-18T03:06:57.757Z,99079.09
2022-12-18T03:09:32.715Z,99060.56
2022-12-18T03:12:25.492Z,99066.66
2022-12-18T03:15:03.864Z,99016.38
2022-12-18T03:17:35.480Z,99062.28
2022-12-18T03:20:10.998Z,99069.25
2022-12-18T03:22:41.483Z,99074.66
2022-12-18T03:25:14.619Z,99125.72
2022-12-18T03:27:50.028Z,99091.63
2022-12-18T03:30:27.361Z,99102.88
2022-12-18T03:33:03.825Z,99125.56
2022-12-18T03:35:36.932Z,99124.06
2022-12-18T03:38:07.606Z,99061.81
2022-12-18T03:40:53.226Z,99078.06
2022-12-18T03:43:34.176Z,99039.38
2022-12-18T03:46:11.556Z,98993.69
2022-12-18T03:48:47.483Z,99097.16
2022-12-18T03:51:26.513Z,99095.75
2022-12-18T03:54:01.542Z,99084.31
2022-12-18T03:56:43.942Z,99091.06
2022-12-18T03:59:16.900Z,99069.53
2022-12-18T04:01:51.664Z,99072.31
2022-12-18T04:04:24.580Z,99054.72
2022-12-18T04:06:55.438Z,99115.69
2022-12-18T04:09:27.150Z,99061.47
2022-12-18T04:12:01.489Z,99115.25
2022-12-18T04:14:36.130Z,99118.06
2022-12-18T04:17:13.506Z,99064.97
2022-12-18T04:19:42.790Z,99067.88
2022-12-18T04:24:59.740Z,99119.22
2022-12-18T04:27:41.086Z,99128.72
2022-12-18T04:30:11.977Z,99149.53
2022-12-18T04:32:46.526Z,99098.59
2022-12-18T04:35:18.753Z,99156.63
2022-12-18T04:37:48.258Z,99152.59
2022-12-18T04:40:18.431Z,99169.03
2022-12-18T04:42:50.136Z,99090.91
2022-12-18T04:45:19.422Z,99171.28
2022-12-18T04:47:51.026Z,99145.56
2022-12-18T04:50:20.271Z,99173.16
2022-12-18T04:52:49.308Z,99188.16
2022-12-18T04:55:18.871Z,99207.44
2022-12-18T04:57:47.999Z,99186.53
2022-12-18T05:00:23.398Z,99224.06
2022-12-18T05:03:00.407Z,99226.84
2022-12-18T05:05:29.649Z,99235.31
2022-12-18T05:07:58.877Z,99233.53
2022-12-18T05:10:27.921Z,99226.84
2022-12-18T05:13:04.322Z,99175.53
2022-12-18T05:15:34.747Z,99165.59
2022-12-18T05:18:16.946Z,99177.84
2022-12-18T05:20:46.437Z,99210.41
2022-12-18T05:23:16.623Z,99147.56
2022-12-18T05:25:51.241Z,99219.56
2022-12-18T05:28:20.556Z,99198.59
2022-12-18T05:30:58.403Z,99192.38
2022-12-18T05:33:32.722Z,99178.56
2022-12-18T05:36:05.436Z,99205.75
2022-12-18T05:38:36.315Z,99240.16
2022-12-18T05:41:06.769Z,99246.06
2022-12-18T05:43:38.743Z,99211.44
2022-12-18T05:46:09.553Z,99228.00
2022-12-18T05:48:40.669Z,99261.41
2022-12-18T05:51:17.235Z,99266.53
2022-12-18T05:53:51.553Z,99165.19
2022-12-18T05:56:24.293Z,99225.75
2022-12-18T05:58:54.800Z,99298.03
2022-12-18T06:01:27.482Z,99281.84
2022-12-18T06:03:58.883Z,99281.03
2022-12-18T06:06:30.065Z,99269.84
2022-12-18T06:09:08.750Z,99300.47
2022-12-18T06:11:39.509Z,99280.75
2022-12-18T06:14:09.509Z,99303.28
2022-12-18T06:16:48.625Z,99313.66
2022-12-18T06:19:19.987Z,99325.63
2022-12-18T06:21:54.864Z,99312.84
2022-12-18T06:24:24.076Z,99313.34
2022-12-18T06:26:53.149Z,99312.53
2022-12-18T06:29:22.396Z,99314.16
2022-12-18T06:31:51.616Z,99315.56
2022-12-18T06:34:22.918Z,99321.91
2022-12-18T06:36:52.024Z,99310.44
2022-12-18T06:39:21.240Z,99316.56
2022-12-18T06:41:50.764Z,99326.34
2022-12-18T06:44:21.327Z,99340.75
2022-12-18T06:46:55.864Z,99347.94
2022-12-18T06:49:30.416Z,99357.63
2022-12-18T06:54:39.626Z,99369.41
2022-12-18T06:57:08.814Z,99360.84
2022-12-18T06:59:43.146Z,99381.31
2022-12-18T07:02:15.656Z,99384.16
2022-12-18T07:04:46.979Z,99404.47
2022-12-18T07:07:27.762Z,99414.50
2022-12-18T07:09:57.021Z,99409.03
2022-12-18T07:12:26.143Z,99373.16
2022-12-18T07:14:55.374Z,99401.94
2022-12-18T07:17:30.214Z,99436.31
2022-12-18T07:20:01.538Z,99400.66
2022-12-18T07:22:32.692Z,99410.34
2022-12-18T07:25:02.146Z,99407.94
2022-12-18T07:27:32.529Z,99431.91
2022-12-18T07:30:01.941Z,99432.34
2022-12-18T07:32:33.764Z,99442.09
2022-12-18T07:35:05.276Z,99438.50
2022-12-18T07:37:34.763Z,99447.53
2022-12-18T07:40:03.958Z,99455.53
2022-12-18T07:42:33.398Z,99437.91
2022-12-18T07:45:02.874Z,99454.19
2022-12-18T07:47:38.479Z,99450.56
2022-12-18T07:50:14.114Z,99463.31
2022-12-18T07:52:43.446Z,99460.78
2022-12-18T07:55:12.618Z,99415.84
2022-12-18T07:57:50.724Z,99416.28
2022-12-18T08:00:26.984Z,99448.94
2022-12-18T08:02:56.396Z,99458.13
2022-12-18T08:05:29.521Z,99473.53
2022-12-18T08:07:58.892Z,99470.38
2022-12-18T08:10:28.182Z,99474.59
2022-12-18T08:13:04.691Z,99474.06
2022-12-18T08:15:34.293Z,99464.50
2022-12-18T08:18:13.934Z,99507.44
2022-12-18T08:20:45.494Z,99489.84
2022-12-18T08:23:21.872Z,99512.16
2022-12-18T08:25:51.817Z,99518.28
2022-12-18T08:28:21.062Z,99521.81
2022-12-18T08:30:54.642Z,99541.56
2022-12-18T08:33:29.889Z,99518.41
2022-12-18T08:38:41.873Z,99480.16
2022-12-18T08:41:13.576Z,99542.59
2022-12-18T08:43:55.732Z,99541.44
2022-12-18T08:46:27.673Z,99535.81
2022-12-18T08:48:57.848Z,99556.88
2022-12-18T08:51:29.102Z,99553.78
2022-12-18T08:53:58.467Z,99562.19
2022-12-18T08:56:27.743Z,99568.38
2022-12-18T08:58:57.962Z,99512.31
2022-12-18T09:01:27.645Z,99570.50
2022-12-18T09:03:56.944Z,99575.19
2022-12-18T09:09:06.962Z,99524.72
2022-12-18T09:11:36.596Z,99537.19
2022-12-18T09:14:06.097Z,99554.50
2022-12-18T09:16:38.781Z,99565.09
2022-12-18T09:19:08.826Z,99564.22
2022-12-18T09:21:42.136Z,99588.56
2022-12-18T09:24:17.479Z,99602.69
2022-12-18T09:26:47.827Z,99605.50
2022-12-18T09:29:18.808Z,99620.88
2022-12-18T09:31:50.021Z,99611.34
2022-12-18T09:34:21.600Z,99608.59
2022-12-18T09:36:51.571Z,99579.47
2022-12-18T09:39:24.251Z,99582.31
2022-12-18T09:41:56.498Z,99623.91
2022-12-18T09:44:32.341Z,99621.31
2022-12-18T09:47:15.621Z,99622.09
2022-12-18T09:49:48.884Z,99623.53
2022-12-18T09:52:24.393Z,99635.75
2022-12-18T09:54:59.863Z,99591.53
2022-12-18T09:57:34.400Z,99611.09
2022-12-18T10:00:20.227Z,99627.38
2022-12-18T10:02:52.063Z,99617.88
2022-12-18T10:05:26.685Z,99633.88
2022-12-18T10:08:09.876Z,99621.19
2022-12-18T10:10:46.246Z,99603.38
2022-12-18T10:13:26.436Z,99648.72
2022-12-18T10:16:11.767Z,99632.44
2022-12-18T10:19:09.786Z,99628.81
2022-12-18T10:21:51.315Z,99638.91
2022-12-18T10:24:31.122Z,99643.69
2022-12-18T10:27:17.192Z,99619.81
2022-12-18T10:29:52.230Z,99641.31
2022-12-18T10:32:24.157Z,99610.81
2022-12-18T10:35:00.402Z,99633.38
2022-12-18T10:37:32.330Z,99628.75
2022-12-18T10:40:21.959Z,99592.25
2022-12-18T10:43:08.355Z,99643.38
2022-12-18T10:45:37.739Z,99653.69
2022-12-18T10:48:07.844Z,99665.41
2022-12-18T10:53:30.654Z,99673.97
2022-12-18T10:56:03.535Z,99677.41
2022-12-18T10:58:36.997Z,99704.69
2022-12-18T11:01:14.073Z,99672.38
2022-12-18T11:04:02.612Z,99723.31
2022-12-18T11:06:37.840Z,99714.91
2022-12-18T11:09:13.877Z,99716.25
2022-12-18T11:11:57.688Z,99699.91
2022-12-18T11:14:31.684Z,99697.63
2022-12-18T11:17:25.465Z,99736.22
2022-12-18T11:19:58.683Z,99733.03
2022-12-18T11:22:30.177Z,99708.09
2022-12-18T11:25:32.572Z,99726.53
2022-12-18T11:27:54.253Z,99738.81
2022-12-18T11:30:31.520Z,99735.25
2022-12-18T11:33:08.068Z,99729.22
2022-12-18T11:35:46.708Z,99738.34
2022-12-18T11:38:26.549Z,99704.19
2022-12-18T11:41:08.584Z,99732.97
2022-12-18T11:43:42.769Z,99752.47
2022-12-18T11:46:19.797Z,99748.44
2022-12-18T11:49:05.713Z,99728.44
2022-12-18T11:51:39.457Z,99757.81
2022-12-18T11:54:15.790Z,99771.47
2022-12-18T11:56:50.441Z,99754.16
2022-12-18T11:59:28.056Z,99774.97
2022-12-18T12:02:24.222Z,99775.31
2022-12-18T12:05:16.334Z,99793.56
2022-12-18T12:07:53.820Z,99797.97
2022-12-18T12:10:43.871Z,99813.59
2022-12-18T12:13:35.678Z,99791.06
2022-12-18T12:16:16.697Z,99802.09
2022-12-18T12:19:15.092Z,99789.50
2022-12-18T12:21:49.739Z,99839.31
2022-12-18T12:24:38.257Z,99825.75
2022-12-18T12:27:18.319Z,99809.97
2022-12-18T12:29:59.020Z,99811.44
2022-12-18T12:32:46.103Z,99825.66
2022-12-18T12:35:32.256Z,99814.28
2022-12-18T12:38:14.441Z,99851.28
2022-12-18T12:40:53.931Z,99837.72
2022-12-18T12:43:34.324Z,99847.09
2022-12-18T12:46:07.413Z,99847.34
2022-12-18T12:54:53.179Z,99895.09
2022-12-18T12:57:27.566Z,99900.84
2022-12-18T13:00:06.133Z,99882.56
2022-12-18T13:02:42.199Z,99888.78
2022-12-18T13:05:27.828Z,99880.22
2022-12-18T13:08:07.215Z,99902.84
2022-12-18T13:10:41.968Z,99912.06
2022-12-18T13:13:12.819Z,99918.44
2022-12-18T13:15:49.466Z,99897.50
2022-12-18T13:18:23.155Z,99920.28
2022-12-18T13:21:03.006Z,99921.25
2022-12-18T13:23:38.206Z,99936.31
2022-12-18T13:26:34.813Z,99921.25
2022-12-18T13:29:07.417Z,99906.50
2022-12-18T13:32:01.835Z,99966.00
2022-12-18T13:34:32.733Z,99947.03
2022-12-18T13:37:32.666Z,99964.84
2022-12-18T13:40:02.071Z,99903.16
2022-12-18T13:42:57.762Z,99950.72
2022-12-18T13:45:43.912Z,99962.03
2022-12-18T13:48:23.729Z,99990.56
2022-12-18T13:50:59.263Z,99988.28
2022-12-18T13:53:37.981Z,99954.03
2022-12-18T13:56:08.569Z,99990.16
2022-12-18T13:58:44.878Z,99982.66
2022-12-18T14:01:25.832Z,100008.75
2022-12-18T14:04:12.066Z,100001.25
2022-12-18T14:06:42.371Z,100016.25
2022-12-18T14:09:21.807Z,99998.28
2022-12-18T14:11:51.527Z,100021.97
2022-12-18T14:14:32.824Z,100040.91
2022-12-18T14:17:04.126Z,100039.19
2022-12-18T14:19:37.254Z,100042.47
2022-12-18T14:22:06.566Z,100052.78
2022-12-18T14:24:35.674Z,100047.03
2022-12-18T14:27:27.401Z,100058.41
2022-12-18T14:29:58.741Z,100042.47
2022-12-18T14:32:34.019Z,100054.41
2022-12-18T14:35:16.396Z,100057.78
2022-12-18T14:37:45.613Z,100049.81
2022-12-18T14:40:16.495Z,100067.97
2022-12-18T14:42:45.842Z,100089.38
2022-12-18T14:45:43.239Z,100083.75
2022-12-18T14:48:25.238Z,100084.97
2022-12-18T14:51:03.087Z,100096.69
2022-12-18T14:53:38.518Z,100092.66
2022-12-18T14:56:18.222Z,100094.59
2022-12-18T14:58:56.144Z,100112.75
2022-12-18T15:01:29.881Z,100099.28
2022-12-18T15:04:01.080Z,100120.59
2022-12-18T15:06:34.214Z,100123.38
2022-12-18T15:09:24.751Z,100119.28
2022-12-18T15:11:58.719Z,100122.94
2022-12-18T15:14:37.437Z,100138.88
2022-12-18T15:17:18.068Z,100148.53
2022-12-18T15:20:01.491Z,100151.75
2022-12-18T15:22:36.536Z,100160.44
2022-12-18T15:25:27.292Z,100138.78
2022-12-18T15:27:58.095Z,100158.25
2022-12-18T15:30:29.332Z,100129.03
2022-12-18T15:33:26.130Z,100142.34
2022-12-18T15:36:00.581Z,100164.63
2022-12-18T15:38:29.883Z,100177.91
2022-12-18T15:40:59.672Z,100168.78
2022-12-18T15:43:35.317Z,100166.34
2022-12-18T15:46:06.365Z,100180.53
2022-12-18T15:48:41.645Z,100167.47
2022-12-18T15:51:18.043Z,100164.34
2022-12-18T15:53:48.481Z,100203.91
2022-12-18T15:56:31.692Z,100202.81
2022-12-18T15:59:01.376Z,100213.13
2022-12-18T16:01:32.913Z,100188.44
2022-12-18T16:04:11.862Z,100189.03
2022-12-18T16:07:12.841Z,100228.88
2022-12-18T16:09:31.004Z,100228.88
2022-12-18T16:12:00.579Z,100241.72
2022-12-18T16:14:31.420Z,100236.50
2022-12-18T16:17:02.446Z,100240.66
2022-12-18T16:19:33.565Z,100252.00
2022-12-18T16:22:07.359Z,100245.81
2022-12-18T16:24:43.907Z,100238.72
2022-12-18T16:27:13.136Z,100250.56
2022-12-18T16:29:50.138Z,100251.91
2022-12-18T16:32:21.697Z,100273.44
2022-12-18T16:35:03.051Z,100282.44
2022-12-18T16:37:32.834Z,100270.53
2022-12-18T16:40:01.979Z,100276.34
2022-12-18T16:42:32.581Z,100281.09
2022-12-18T16:45:01.907Z,100301.81
2022-12-18T16:47:33.197Z,100301.91
2022-12-18T16:50:04.974Z,100305.66
2022-12-18T16:52:34.223Z,100318.97
2022-12-18T16:55:03.296Z,100292.03
2022-12-18T16:57:32.567Z,100309.94
2022-12-18T17:00:08.290Z,100310.88
2022-12-18T17:02:38.851Z,100315.16
2022-12-18T17:05:15.136Z,100320.50
2022-12-18T17:07:44.329Z,100314.50
2022-12-18T17:10:13.731Z,100326.25
2022-12-18T17:12:48.265Z,100312.28
2022-12-18T17:15:17.478Z,100293.59
2022-12-18T17:17:47.738Z,100335.31
2022-12-18T17:20:18.976Z,100344.34
2022-12-18T17:22:48.993Z,100342.59
2022-12-18T17:25:18.200Z,100362.72
2022-12-18T17:30:27.600Z,100360.38
2022-12-18T17:32:56.669Z,100350.31
2022-12-18T17:35:28.333Z,100364.75
2022-12-18T17:37:57.219Z,100367.16
2022-12-18T17:40:26.311Z,100350.00
2022-12-18T17:42:55.705Z,100324.34
2022-12-18T17:45:27.166Z,100378.53
2022-12-18T17:48:01.459Z,100366.13
2022-12-18T17:50:34.620Z,100387.31
2022-12-18T17:53:04.133Z,100346.47
2022-12-18T17:55:33.209Z,100386.09
2022-12-18T17:58:02.433Z,100417.38
2022-12-18T18:00:37.889Z,100401.56
2022-12-18T18:03:17.916Z,100412.50
2022-12-18T18:05:50.709Z,100441.44
2022-12-18T18:08:19.931Z,100400.81
2022-12-18T18:10:50.572Z,100425.06
2022-12-18T18:13:46.418Z,100437.41
2022-12-18T18:16:16.005Z,100445.41
2022-12-18T18:18:45.415Z,100449.88
2022-12-18T18:21:16.485Z,100427.72
2022-12-18T18:24:02.057Z,100457.53
2022-12-18T18:26:32.923Z,100446.06
2022-12-18T18:29:05.089Z,100469.59
2022-12-18T18:31:40.674Z,100469.59
2022-12-18T18:34:16.285Z,100464.41
2022-12-18T18:36:47.587Z,100470.63
2022-12-18T18:39:17.281Z,100492.78
2022-12-18T18:41:46.967Z,100481.44
2022-12-18T18:44:25.724Z,100476.50
2022-12-18T18:46:56.708Z,100502.78
2022-12-18T18:52:06.758Z,100500.75
2022-12-18T18:54:36.102Z,100508.94
2022-12-18T18:57:20.330Z,100514.94
2022-12-18T18:59:55.732Z,100512.09
2022-12-18T19:02:30.010Z,100520.91
2022-12-18T19:04:59.276Z,100512.81
2022-12-18T19:07:31.270Z,100529.16
2022-12-18T19:10:04.645Z,100522.78
2022-12-18T19:12:48.458Z,100531.41
2022-12-18T19:15:17.689Z,100554.66
2022-12-18T19:17:47.460Z,100528.53
2022-12-18T19:20:17.934Z,100576.78
2022-12-18T19:22:55.584Z,100561.34
2022-12-18T19:25:42.106Z,100586.06
2022-12-18T19:28:21.669Z,100570.66
2022-12-18T19:30:58.874Z,100593.00
2022-12-18T19:33:45.648Z,100569.41
2022-12-18T19:36:23.002Z,100595.59
2022-12-18T19:38:56.279Z,100600.84
2022-12-18T19:41:28.265Z,100582.13
2022-12-18T19:44:08.104Z,100611.13
2022-12-18T19:46:41.680Z,100580.09
2022-12-18T19:49:17.582Z,100562.81
2022-12-18T19:51:50.207Z,100608.13
2022-12-18T19:54:21.938Z,100608.41
2022-12-18T19:56:52.555Z,100617.16
2022-12-18T19:59:22.388Z,100611.16
2022-12-18T20:01:53.870Z,100617.41
2022-12-18T20:04:22.938Z,100626.44
2022-12-18T20:06:53.723Z,100616.94
2022-12-18T20:09:25.398Z,100644.13
2022-12-18T20:11:55.644Z,100629.84
2022-12-18T20:14:30.230Z,100632.09
2022-12-18T20:19:49.245Z,100633.97
2022-12-18T20:20:47.433Z,100651.25
2022-12-18T20:22:24.118Z,100657.00
2022-12-18T20:24:55.328Z,100666.53
2022-12-18T20:27:29.854Z,100668.53
2022-12-18T20:29:59.396Z,100639.22
2022-12-18T20:32:32.657Z,100669.03
2022-12-18T20:35:12.047Z,100666.78
2022-12-18T20:37:46.087Z,100670.81
2022-12-18T20:40:20.767Z,100669.91
2022-12-18T20:42:50.090Z,100652.13
2022-12-18T20:45:21.516Z,100664.53
2022-12-18T20:47:50.673Z,100666.91
2022-12-18T20:50:20.080Z,100667.50
2022-12-18T20:52:50.102Z,100659.63
2022-12-18T20:55:24.948Z,100660.25
2022-12-18T20:57:54.457Z,100672.28
2022-12-18T21:00:24.492Z,100656.22
2022-12-18T21:02:53.729Z,100669.38
2022-12-18T21:05:23.037Z,100691.19
2022-12-18T21:07:52.315Z,100688.53
2022-12-18T21:10:21.785Z,100681.91
2022-12-18T21:13:01.777Z,100686.91
2022-12-18T21:15:33.804Z,100667.09
2022-12-18T21:20:40.328Z,100692.41
2022-12-18T21:23:16.595Z,100679.75
2022-12-18T21:25:46.961Z,100698.00
2022-12-18T21:28:22.596Z,100685.13
2022-12-18T21:30:52.368Z,100708.66
2022-12-18T21:33:21.592Z,100701.75
2022-12-18T21:35:50.816Z,100691.03
2022-12-18T21:38:19.827Z,100711.53
2022-12-18T21:40:48.993Z,100693.47
2022-12-18T21:43:46.692Z,100716.88
2022-12-18T21:46:18.357Z,100717.47
2022-12-18T21:48:52.296Z,100719.97
2022-12-18T21:51:21.837Z,100724.47
2022-12-18T21:53:50.915Z,100710.31
2022-12-18T21:56:48.858Z,100714.97
2022-12-18T21:59:20.028Z,100711.94
2022-12-18T22:01:52.539Z,100722.34
2022-12-18T22:04:22.917Z,100740.22
2022-12-18T22:07:00.236Z,100710.66
2022-12-18T22:09:29.829Z,100704.31
2022-12-18T22:12:00.923Z,100746.06
2022-12-18T22:14:31.002Z,100752.47
2022-12-18T22:17:02.162Z,100755.44
2022-12-18T22:19:31.371Z,100752.19
2022-12-18T22:22:00.482Z,100763.72
2022-12-18T22:24:30.919Z,100745.84
2022-12-18T22:27:02.140Z,100739.16
2022-12-18T22:30:00.586Z,100754.78
2022-12-18T22:32:31.858Z,100773.91
2022-12-18T22:35:06.820Z,100756.28
2022-12-18T22:37:37.448Z,100741.41
2022-12-18T22:40:08.581Z,100752.28
2022-12-18T22:42:37.770Z,100728.63
2022-12-18T22:45:07.503Z,100749.25
2022-12-18T22:47:38.686Z,100753.50
2022-12-18T22:50:14.520Z,100758.34
2022-12-18T22:52:49.021Z,100754.84
2022-12-18T22:55:18.351Z,100749.84
2022-12-18T22:57:52.576Z,100763.34
2022-12-18T23:00:24.154Z,100763.22
2022-12-18T23:03:00.754Z,100776.50
2022-12-18T23:05:31.873Z,100782.09
2022-12-18T23:10:41.416Z,100776.22
2022-12-18T23:13:10.702Z,100767.09
2022-12-18T23:15:43.628Z,100771.97
2022-12-18T23:18:14.924Z,100785.31
2022-12-18T23:20:44.065Z,100787.09
2022-12-18T23:23:13.555Z,100786.38
2022-12-18T23:25:43.964Z,100795.59
2022-12-18T23:28:13.355Z,100798.59
2022-12-18T23:30:42.499Z,100792.44
2022-12-18T23:33:11.681Z,100791.75
2022-12-18T23:35:47.913Z,100795.25
2022-12-18T23:38:17.072Z,100801.28
2022-12-18T23:40:46.121Z,100800.13
2022-12-18T23:43:22.853Z,100808.31
2022-12-18T23:45:55.641Z,100809.47
2022-12-18T23:48:30.182Z,100827.97
2022-12-18T23:51:07.018Z,100814.88
2022-12-18T23:53:47.757Z,100822.66
2022-12-18T23:56:22.161Z,100828.56
2022-12-18T23:58:52.785Z,100824.41
